sensor_id;sensor_type;location;lat;lon;timestamp;temperature;humidity
3998;DHT22;61314;53.444;9.902;2022-07-23T00:00:31;15.90;99.90
3998;DHT22;61314;53.444;9.902;2022-07-23T00:03:04;15.90;99.90
3998;DHT22;61314;53.444;9.902;2022-07-23T00:05:31;15.90;99.90
3998;DHT22;61314;53.444;9.902;2022-07-23T00:08:01;15.80;99.90
3998;DHT22;61314;53.444;9.902;2022-07-23T00:10:28;15.80;99.90
3998;DHT22;61314;53.444;9.902;2022-07-23T00:12:54;15.80;99.90
3998;DHT22;61314;53.444;9.902;2022-07-23T00:15:22;15.80;99.90
3998;DHT22;61314;53.444;9.902;2022-07-23T00:17:49;15.80;99.90
3998;DHT22;61314;53.444;9.902;2022-07-23T00:20:16;15.80;99.90
3998;DHT22;61314;53.444;9.902;2022-07-23T00:22:48;15.80;99.90
3998;DHT22;61314;53.444;9.902;2022-07-23T00:25:15;15.80;99.90
3998;DHT22;61314;53.444;9.902;2022-07-23T00:27:59;15.80;99.90
3998;DHT22;61314;53.444;9.902;2022-07-23T00:30:27;15.70;99.90
3998;DHT22;61314;53.444;9.902;2022-07-23T00:32:58;15.70;99.90
3998;DHT22;61314;53.444;9.902;2022-07-23T00:35:27;15.70;99.90
3998;DHT22;61314;53.444;9.902;2022-07-23T00:37:55;15.70;99.90
3998;DHT22;61314;53.444;9.902;2022-07-23T00:40:23;15.80;99.90
3998;DHT22;61314;53.444;9.902;2022-07-23T00:42:50;15.70;99.90
3998;DHT22;61314;53.444;9.902;2022-07-23T00:45:17;15.60;99.90
3998;DHT22;61314;53.444;9.902;2022-07-23T00:47:44;15.60;99.90
3998;DHT22;61314;53.444;9.902;2022-07-23T00:50:12;15.60;99.90
3998;DHT22;61314;53.444;9.902;2022-07-23T00:52:39;15.60;99.90
3998;DHT22;61314;53.444;9.902;2022-07-23T00:55:09;15.50;99.90
3998;DHT22;61314;53.444;9.902;2022-07-23T00:57:39;15.50;99.90
3998;DHT22;61314;53.444;9.902;2022-07-23T01:00:08;15.50;99.90
3998;DHT22;61314;53.444;9.902;2022-07-23T01:02:36;15.50;99.90
3998;DHT22;61314;53.444;9.902;2022-07-23T01:05:03;15.50;99.90
3998;DHT22;61314;53.444;9.902;2022-07-23T01:07:30;15.50;99.90
3998;DHT22;61314;53.444;9.902;2022-07-23T01:09:57;15.50;99.90
3998;DHT22;61314;53.444;9.902;2022-07-23T01:12:26;15.50;99.90
3998;DHT22;61314;53.444;9.902;2022-07-23T01:14:57;15.50;99.90
3998;DHT22;61314;53.444;9.902;2022-07-23T01:17:24;15.50;99.90
3998;DHT22;61314;53.444;9.902;2022-07-23T01:19:51;15.50;99.90
3998;DHT22;61314;53.444;9.902;2022-07-23T01:22:20;15.50;99.90
3998;DHT22;61314;53.444;9.902;2022-07-23T01:24:47;15.50;99.90
3998;DHT22;61314;53.444;9.902;2022-07-23T01:27:14;15.40;99.90
3998;DHT22;61314;53.444;9.902;2022-07-23T01:29:41;15.40;99.90
3998;DHT22;61314;53.444;9.902;2022-07-23T01:34:35;15.40;99.90
3998;DHT22;61314;53.444;9.902;2022-07-23T01:37:02;15.40;99.90
3998;DHT22;61314;53.444;9.902;2022-07-23T01:39:29;15.30;99.90
3998;DHT22;61314;53.444;9.902;2022-07-23T01:41:56;15.40;99.90
3998;DHT22;61314;53.444;9.902;2022-07-23T01:44:23;15.30;99.90
3998;DHT22;61314;53.444;9.902;2022-07-23T01:46:50;15.30;99.90
3998;DHT22;61314;53.444;9.902;2022-07-23T01:49:17;15.30;99.90
3998;DHT22;61314;53.444;9.902;2022-07-23T01:51:44;15.30;99.90
3998;DHT22;61314;53.444;9.902;2022-07-23T01:54:31;15.30;99.90
3998;DHT22;61314;53.444;9.902;2022-07-23T01:56:59;15.30;99.90
3998;DHT22;61314;53.444;9.902;2022-07-23T01:59:27;15.30;99.90
3998;DHT22;61314;53.444;9.902;2022-07-23T02:01:54;15.20;99.90
3998;DHT22;61314;53.444;9.902;2022-07-23T02:04:23;15.20;99.90
3998;DHT22;61314;53.444;9.902;2022-07-23T02:06:51;15.20;99.90
3998;DHT22;61314;53.444;9.902;2022-07-23T02:09:18;15.20;99.90
3998;DHT22;61314;53.444;9.902;2022-07-23T02:11:46;15.20;99.90
3998;DHT22;61314;53.444;9.902;2022-07-23T02:14:13;15.20;99.90
3998;DHT22;61314;53.444;9.902;2022-07-23T02:16:40;15.20;99.90
3998;DHT22;61314;53.444;9.902;2022-07-23T02:19:07;15.20;99.90
3998;DHT22;61314;53.444;9.902;2022-07-23T02:21:34;15.10;99.90
3998;DHT22;61314;53.444;9.902;2022-07-23T02:24:01;15.10;99.90
3998;DHT22;61314;53.444;9.902;2022-07-23T02:26:28;15.00;99.90
3998;DHT22;61314;53.444;9.902;2022-07-23T02:28:55;15.00;99.90
3998;DHT22;61314;53.444;9.902;2022-07-23T02:31:22;15.00;99.90
3998;DHT22;61314;53.444;9.902;2022-07-23T02:33:49;15.00;99.90
3998;DHT22;61314;53.444;9.902;2022-07-23T02:36:16;15.00;99.90
3998;DHT22;61314;53.444;9.902;2022-07-23T02:38:42;14.90;99.90
3998;DHT22;61314;53.444;9.902;2022-07-23T02:41:09;14.90;99.90
3998;DHT22;61314;53.444;9.902;2022-07-23T02:43:36;14.90;99.90
3998;DHT22;61314;53.444;9.902;2022-07-23T02:46:03;14.90;99.90
3998;DHT22;61314;53.444;9.902;2022-07-23T02:48:31;14.90;99.90
3998;DHT22;61314;53.444;9.902;2022-07-23T02:51:00;14.90;99.90
3998;DHT22;61314;53.444;9.902;2022-07-23T02:53:27;14.80;99.90
3998;DHT22;61314;53.444;9.902;2022-07-23T02:55:54;14.80;99.90
3998;DHT22;61314;53.444;9.902;2022-07-23T02:58:21;14.80;99.90
3998;DHT22;61314;53.444;9.902;2022-07-23T03:00:48;14.80;99.90
3998;DHT22;61314;53.444;9.902;2022-07-23T03:03:16;14.80;99.90
3998;DHT22;61314;53.444;9.902;2022-07-23T03:05:43;14.90;99.90
3998;DHT22;61314;53.444;9.902;2022-07-23T03:08:10;14.70;99.90
3998;DHT22;61314;53.444;9.902;2022-07-23T03:10:37;14.70;99.90
3998;DHT22;61314;53.444;9.902;2022-07-23T03:13:04;14.60;99.90
3998;DHT22;61314;53.444;9.902;2022-07-23T03:15:31;14.60;99.90
3998;DHT22;61314;53.444;9.902;2022-07-23T03:17:58;14.50;99.90
3998;DHT22;61314;53.444;9.902;2022-07-23T03:20:25;14.60;99.90
3998;DHT22;61314;53.444;9.902;2022-07-23T03:22:52;14.50;99.90
3998;DHT22;61314;53.444;9.902;2022-07-23T03:25:19;14.50;99.90
3998;DHT22;61314;53.444;9.902;2022-07-23T03:27:46;14.50;99.90
3998;DHT22;61314;53.444;9.902;2022-07-23T03:30:13;14.40;99.90
3998;DHT22;61314;53.444;9.902;2022-07-23T03:32:40;14.40;99.90
3998;DHT22;61314;53.444;9.902;2022-07-23T03:35:07;14.40;99.90
3998;DHT22;61314;53.444;9.902;2022-07-23T03:37:34;14.40;99.90
3998;DHT22;61314;53.444;9.902;2022-07-23T03:40:02;14.30;99.90
3998;DHT22;61314;53.444;9.902;2022-07-23T03:42:29;14.30;99.90
3998;DHT22;61314;53.444;9.902;2022-07-23T03:44:55;14.30;99.90
3998;DHT22;61314;53.444;9.902;2022-07-23T03:47:22;14.30;99.90
3998;DHT22;61314;53.444;9.902;2022-07-23T03:49:50;14.30;99.90
3998;DHT22;61314;53.444;9.902;2022-07-23T03:52:17;14.20;99.90
3998;DHT22;61314;53.444;9.902;2022-07-23T03:54:44;14.30;99.90
3998;DHT22;61314;53.444;9.902;2022-07-23T03:57:10;14.20;99.90
3998;DHT22;61314;53.444;9.902;2022-07-23T03:59:37;14.20;99.90
3998;DHT22;61314;53.444;9.902;2022-07-23T04:02:04;14.20;99.90
3998;DHT22;61314;53.444;9.902;2022-07-23T04:04:32;14.20;99.90
3998;DHT22;61314;53.444;9.902;2022-07-23T04:06:58;14.20;99.90
3998;DHT22;61314;53.444;9.902;2022-07-23T04:09:25;14.30;99.90
3998;DHT22;61314;53.444;9.902;2022-07-23T04:11:52;14.30;99.90
3998;DHT22;61314;53.444;9.902;2022-07-23T04:14:19;14.30;99.90
3998;DHT22;61314;53.444;9.902;2022-07-23T04:16:46;14.30;99.90
3998;DHT22;61314;53.444;9.902;2022-07-23T04:19:13;14.40;99.90
3998;DHT22;61314;53.444;9.902;2022-07-23T04:21:40;14.40;99.90
3998;DHT22;61314;53.444;9.902;2022-07-23T04:24:07;14.40;99.90
3998;DHT22;61314;53.444;9.902;2022-07-23T04:26:34;14.40;99.90
3998;DHT22;61314;53.444;9.902;2022-07-23T04:29:01;14.40;99.90
3998;DHT22;61314;53.444;9.902;2022-07-23T04:31:29;14.40;99.90
3998;DHT22;61314;53.444;9.902;2022-07-23T04:34:02;14.40;99.90
3998;DHT22;61314;53.444;9.902;2022-07-23T04:36:29;14.40;99.90
3998;DHT22;61314;53.444;9.902;2022-07-23T04:38:57;14.50;99.90
3998;DHT22;61314;53.444;9.902;2022-07-23T04:41:23;14.40;99.90
3998;DHT22;61314;53.444;9.902;2022-07-23T04:43:50;14.50;99.90
3998;DHT22;61314;53.444;9.902;2022-07-23T04:46:17;14.40;99.90
3998;DHT22;61314;53.444;9.902;2022-07-23T04:48:44;14.50;99.90
3998;DHT22;61314;53.444;9.902;2022-07-23T04:51:11;14.50;99.90
3998;DHT22;61314;53.444;9.902;2022-07-23T04:53:38;14.50;99.90
3998;DHT22;61314;53.444;9.902;2022-07-23T04:56:05;14.50;99.90
3998;DHT22;61314;53.444;9.902;2022-07-23T04:58:32;14.50;99.90
3998;DHT22;61314;53.444;9.902;2022-07-23T05:00:59;14.50;99.90
3998;DHT22;61314;53.444;9.902;2022-07-23T05:03:26;14.50;99.90
3998;DHT22;61314;53.444;9.902;2022-07-23T05:05:53;14.50;99.90
3998;DHT22;61314;53.444;9.902;2022-07-23T05:08:20;14.50;99.90
3998;DHT22;61314;53.444;9.902;2022-07-23T05:10:47;14.50;99.90
3998;DHT22;61314;53.444;9.902;2022-07-23T05:13:15;14.60;99.90
3998;DHT22;61314;53.444;9.902;2022-07-23T05:15:43;14.60;99.90
3998;DHT22;61314;53.444;9.902;2022-07-23T05:18:10;14.60;99.90
3998;DHT22;61314;53.444;9.902;2022-07-23T05:20:37;14.60;99.90
3998;DHT22;61314;53.444;9.902;2022-07-23T05:23:06;14.60;99.90
3998;DHT22;61314;53.444;9.902;2022-07-23T05:25:33;14.60;99.90
3998;DHT22;61314;53.444;9.902;2022-07-23T05:28:00;14.70;99.90
3998;DHT22;61314;53.444;9.902;2022-07-23T05:30:27;14.70;99.90
3998;DHT22;61314;53.444;9.902;2022-07-23T05:32:54;14.70;99.90
3998;DHT22;61314;53.444;9.902;2022-07-23T05:35:21;14.70;99.90
3998;DHT22;61314;53.444;9.902;2022-07-23T05:37:48;14.80;99.90
3998;DHT22;61314;53.444;9.902;2022-07-23T05:40:14;14.80;99.90
3998;DHT22;61314;53.444;9.902;2022-07-23T05:42:42;14.90;99.90
3998;DHT22;61314;53.444;9.902;2022-07-23T05:45:10;14.90;99.90
3998;DHT22;61314;53.444;9.902;2022-07-23T05:47:46;14.90;99.90
3998;DHT22;61314;53.444;9.902;2022-07-23T05:50:16;15.00;99.90
3998;DHT22;61314;53.444;9.902;2022-07-23T05:52:45;15.00;99.90
3998;DHT22;61314;53.444;9.902;2022-07-23T05:55:19;15.00;99.90
3998;DHT22;61314;53.444;9.902;2022-07-23T05:57:47;15.10;99.90
3998;DHT22;61314;53.444;9.902;2022-07-23T06:00:14;15.10;99.90
3998;DHT22;61314;53.444;9.902;2022-07-23T06:02:41;15.20;99.90
3998;DHT22;61314;53.444;9.902;2022-07-23T06:05:08;15.20;99.90
3998;DHT22;61314;53.444;9.902;2022-07-23T06:07:36;15.20;99.90
3998;DHT22;61314;53.444;9.902;2022-07-23T06:10:03;15.20;99.90
3998;DHT22;61314;53.444;9.902;2022-07-23T06:12:30;15.30;99.90
3998;DHT22;61314;53.444;9.902;2022-07-23T06:14:57;15.20;99.90
3998;DHT22;61314;53.444;9.902;2022-07-23T06:17:24;15.30;99.90
3998;DHT22;61314;53.444;9.902;2022-07-23T06:19:52;15.30;99.90
3998;DHT22;61314;53.444;9.902;2022-07-23T06:22:20;15.40;99.90
3998;DHT22;61314;53.444;9.902;2022-07-23T06:24:47;15.40;99.90
3998;DHT22;61314;53.444;9.902;2022-07-23T06:27:14;15.40;99.90
3998;DHT22;61314;53.444;9.902;2022-07-23T06:29:41;15.40;99.90
3998;DHT22;61314;53.444;9.902;2022-07-23T06:32:08;15.40;99.90
3998;DHT22;61314;53.444;9.902;2022-07-23T06:34:35;15.50;99.90
3998;DHT22;61314;53.444;9.902;2022-07-23T06:37:02;15.50;99.90
3998;DHT22;61314;53.444;9.902;2022-07-23T06:39:29;15.60;99.90
3998;DHT22;61314;53.444;9.902;2022-07-23T06:41:56;15.60;99.90
3998;DHT22;61314;53.444;9.902;2022-07-23T06:44:27;15.70;99.90
3998;DHT22;61314;53.444;9.902;2022-07-23T06:46:54;15.70;99.90
3998;DHT22;61314;53.444;9.902;2022-07-23T06:49:21;15.80;99.90
3998;DHT22;61314;53.444;9.902;2022-07-23T06:51:48;15.80;99.90
3998;DHT22;61314;53.444;9.902;2022-07-23T06:54:14;15.90;99.90
3998;DHT22;61314;53.444;9.902;2022-07-23T06:56:41;15.90;99.90
3998;DHT22;61314;53.444;9.902;2022-07-23T06:59:10;15.90;99.90
3998;DHT22;61314;53.444;9.902;2022-07-23T07:01:37;16.00;99.90
3998;DHT22;61314;53.444;9.902;2022-07-23T07:04:04;16.10;99.90
3998;DHT22;61314;53.444;9.902;2022-07-23T07:06:30;16.10;99.90
3998;DHT22;61314;53.444;9.902;2022-07-23T07:08:57;16.10;99.90
3998;DHT22;61314;53.444;9.902;2022-07-23T07:11:25;16.20;99.90
3998;DHT22;61314;53.444;9.902;2022-07-23T07:13:52;16.20;99.90
3998;DHT22;61314;53.444;9.902;2022-07-23T07:16:19;16.20;99.90
3998;DHT22;61314;53.444;9.902;2022-07-23T07:18:46;16.20;99.90
3998;DHT22;61314;53.444;9.902;2022-07-23T07:21:13;16.30;99.90
3998;DHT22;61314;53.444;9.902;2022-07-23T07:23:40;16.30;99.90
3998;DHT22;61314;53.444;9.902;2022-07-23T07:26:06;16.30;99.90
3998;DHT22;61314;53.444;9.902;2022-07-23T07:28:33;16.40;99.90
3998;DHT22;61314;53.444;9.902;2022-07-23T07:31:00;16.40;99.90
3998;DHT22;61314;53.444;9.902;2022-07-23T07:33:37;16.50;99.90
3998;DHT22;61314;53.444;9.902;2022-07-23T07:36:04;16.50;99.90
3998;DHT22;61314;53.444;9.902;2022-07-23T07:38:31;16.60;99.90
3998;DHT22;61314;53.444;9.902;2022-07-23T07:40:58;16.70;99.90
3998;DHT22;61314;53.444;9.902;2022-07-23T07:43:25;16.70;99.90
3998;DHT22;61314;53.444;9.902;2022-07-23T07:45:52;16.80;99.90
3998;DHT22;61314;53.444;9.902;2022-07-23T07:48:22;16.90;99.90
3998;DHT22;61314;53.444;9.902;2022-07-23T07:50:49;16.90;99.90
3998;DHT22;61314;53.444;9.902;2022-07-23T07:53:16;17.00;99.90
3998;DHT22;61314;53.444;9.902;2022-07-23T07:55:44;17.00;99.90
3998;DHT22;61314;53.444;9.902;2022-07-23T07:58:17;17.20;99.90
3998;DHT22;61314;53.444;9.902;2022-07-23T08:00:44;17.30;99.90
3998;DHT22;61314;53.444;9.902;2022-07-23T08:03:11;17.40;99.90
3998;DHT22;61314;53.444;9.902;2022-07-23T08:05:39;17.50;99.90
3998;DHT22;61314;53.444;9.902;2022-07-23T08:08:06;17.60;99.90
3998;DHT22;61314;53.444;9.902;2022-07-23T08:10:33;17.60;99.90
3998;DHT22;61314;53.444;9.902;2022-07-23T08:13:00;17.60;99.90
3998;DHT22;61314;53.444;9.902;2022-07-23T08:15:29;17.70;99.90
3998;DHT22;61314;53.444;9.902;2022-07-23T08:17:56;17.70;99.90
3998;DHT22;61314;53.444;9.902;2022-07-23T08:20:25;17.70;99.90
3998;DHT22;61314;53.444;9.902;2022-07-23T08:25:27;17.70;99.90
3998;DHT22;61314;53.444;9.902;2022-07-23T08:27:55;17.70;99.90
3998;DHT22;61314;53.444;9.902;2022-07-23T08:30:23;17.70;99.90
3998;DHT22;61314;53.444;9.902;2022-07-23T08:35:25;17.70;99.90
3998;DHT22;61314;53.444;9.902;2022-07-23T08:37:52;17.80;99.90
3998;DHT22;61314;53.444;9.902;2022-07-23T08:40:20;18.00;99.90
3998;DHT22;61314;53.444;9.902;2022-07-23T08:42:50;18.10;99.90
3998;DHT22;61314;53.444;9.902;2022-07-23T08:45:20;18.10;99.90
3998;DHT22;61314;53.444;9.902;2022-07-23T08:47:53;18.20;99.90
3998;DHT22;61314;53.444;9.902;2022-07-23T08:50:21;18.20;99.90
3998;DHT22;61314;53.444;9.902;2022-07-23T08:52:50;18.20;99.90
3998;DHT22;61314;53.444;9.902;2022-07-23T08:55:18;18.10;99.90
3998;DHT22;61314;53.444;9.902;2022-07-23T08:57:48;18.20;99.90
3998;DHT22;61314;53.444;9.902;2022-07-23T09:00:16;18.20;99.90
3998;DHT22;61314;53.444;9.902;2022-07-23T09:02:44;18.30;99.90
3998;DHT22;61314;53.444;9.902;2022-07-23T09:05:13;18.40;99.90
3998;DHT22;61314;53.444;9.902;2022-07-23T09:10:57;18.70;99.90
3998;DHT22;61314;53.444;9.902;2022-07-23T09:13:50;18.70;99.90
3998;DHT22;61314;53.444;9.902;2022-07-23T09:16:25;19.00;99.90
3998;DHT22;61314;53.444;9.902;2022-07-23T09:18:58;19.10;99.90
3998;DHT22;61314;53.444;9.902;2022-07-23T09:21:34;19.30;99.90
3998;DHT22;61314;53.444;9.902;2022-07-23T09:29:06;19.60;99.90
3998;DHT22;61314;53.444;9.902;2022-07-23T09:31:48;19.60;99.90
3998;DHT22;61314;53.444;9.902;2022-07-23T09:44:25;19.70;99.90
3998;DHT22;61314;53.444;9.902;2022-07-23T09:46:58;20.20;99.90
3998;DHT22;61314;53.444;9.902;2022-07-23T09:49:26;20.50;99.90
3998;DHT22;61314;53.444;9.902;2022-07-23T09:51:58;20.50;99.90
3998;DHT22;61314;53.444;9.902;2022-07-23T09:54:38;20.70;99.90
3998;DHT22;61314;53.444;9.902;2022-07-23T09:57:11;20.70;99.90
3998;DHT22;61314;53.444;9.902;2022-07-23T09:59:44;20.90;99.90
3998;DHT22;61314;53.444;9.902;2022-07-23T11:05:44;21.00;99.90
3998;DHT22;61314;53.444;9.902;2022-07-23T11:08:13;21.60;99.90
3998;DHT22;61314;53.444;9.902;2022-07-23T11:10:47;21.70;99.90
3998;DHT22;61314;53.444;9.902;2022-07-23T11:13:31;21.80;99.90
3998;DHT22;61314;53.444;9.902;2022-07-23T11:32:04;22.20;99.90
3998;DHT22;61314;53.444;9.902;2022-07-23T12:09:54;22.40;99.90
3998;DHT22;61314;53.444;9.902;2022-07-23T12:12:22;22.50;99.90
3998;DHT22;61314;53.444;9.902;2022-07-23T12:14:54;22.40;99.90
3998;DHT22;61314;53.444;9.902;2022-07-23T12:17:30;22.50;99.90
3998;DHT22;61314;53.444;9.902;2022-07-23T12:19:58;22.50;99.90
3998;DHT22;61314;53.444;9.902;2022-07-23T12:22:37;22.40;99.90
3998;DHT22;61314;53.444;9.902;2022-07-23T12:25:10;22.40;99.90
3998;DHT22;61314;53.444;9.902;2022-07-23T12:27:37;22.40;99.90
3998;DHT22;61314;53.444;9.902;2022-07-23T12:30:25;22.40;99.90
3998;DHT22;61314;53.444;9.902;2022-07-23T12:33:00;22.30;99.90
3998;DHT22;61314;53.444;9.902;2022-07-23T12:35:35;22.40;99.90
3998;DHT22;61314;53.444;9.902;2022-07-23T12:38:06;22.50;99.90
3998;DHT22;61314;53.444;9.902;2022-07-23T12:40:58;22.50;99.90
3998;DHT22;61314;53.444;9.902;2022-07-23T12:48:38;22.50;99.90
3998;DHT22;61314;53.444;9.902;2022-07-23T12:51:16;22.40;99.90
3998;DHT22;61314;53.444;9.902;2022-07-23T12:53:56;22.30;99.90
3998;DHT22;61314;53.444;9.902;2022-07-23T12:58:59;22.10;99.90
3998;DHT22;61314;53.444;9.902;2022-07-23T13:01:38;22.00;99.90
3998;DHT22;61314;53.444;9.902;2022-07-23T13:04:12;22.00;99.90
3998;DHT22;61314;53.444;9.902;2022-07-23T13:09:21;22.00;99.90
3998;DHT22;61314;53.444;9.902;2022-07-23T13:11:49;21.90;99.90
3998;DHT22;61314;53.444;9.902;2022-07-23T13:14:18;21.90;99.90
3998;DHT22;61314;53.444;9.902;2022-07-23T13:16:48;21.80;99.90
3998;DHT22;61314;53.444;9.902;2022-07-23T13:19:15;21.80;99.90
3998;DHT22;61314;53.444;9.902;2022-07-23T13:21:45;21.80;99.90
3998;DHT22;61314;53.444;9.902;2022-07-23T13:24:12;21.80;99.90
3998;DHT22;61314;53.444;9.902;2022-07-23T13:26:40;21.90;99.90
3998;DHT22;61314;53.444;9.902;2022-07-23T13:29:07;21.90;99.90
3998;DHT22;61314;53.444;9.902;2022-07-23T13:31:37;22.00;99.90
3998;DHT22;61314;53.444;9.902;2022-07-23T13:34:06;21.90;99.90
3998;DHT22;61314;53.444;9.902;2022-07-23T13:36:35;21.90;99.90
3998;DHT22;61314;53.444;9.902;2022-07-23T13:39:04;21.80;99.90
3998;DHT22;61314;53.444;9.902;2022-07-23T13:41:33;21.80;99.90
3998;DHT22;61314;53.444;9.902;2022-07-23T13:44:02;21.80;99.90
3998;DHT22;61314;53.444;9.902;2022-07-23T13:46:30;21.80;99.90
3998;DHT22;61314;53.444;9.902;2022-07-23T13:48:56;21.80;99.90
3998;DHT22;61314;53.444;9.902;2022-07-23T13:51:25;21.80;99.90
3998;DHT22;61314;53.444;9.902;2022-07-23T13:53:54;21.70;99.90
3998;DHT22;61314;53.444;9.902;2022-07-23T13:56:21;21.80;99.90
3998;DHT22;61314;53.444;9.902;2022-07-23T13:58:48;21.80;99.90
3998;DHT22;61314;53.444;9.902;2022-07-23T14:01:15;21.80;99.90
3998;DHT22;61314;53.444;9.902;2022-07-23T14:03:44;21.90;99.90
3998;DHT22;61314;53.444;9.902;2022-07-23T14:06:11;21.90;99.90
3998;DHT22;61314;53.444;9.902;2022-07-23T14:08:43;21.80;99.90
3998;DHT22;61314;53.444;9.902;2022-07-23T14:11:12;21.80;99.90
3998;DHT22;61314;53.444;9.902;2022-07-23T14:13:39;21.80;99.90
3998;DHT22;61314;53.444;9.902;2022-07-23T14:16:07;21.80;99.90
3998;DHT22;61314;53.444;9.902;2022-07-23T14:18:34;21.80;99.90
3998;DHT22;61314;53.444;9.902;2022-07-23T14:21:01;21.90;99.90
3998;DHT22;61314;53.444;9.902;2022-07-23T14:23:29;21.90;99.90
3998;DHT22;61314;53.444;9.902;2022-07-23T14:25:56;21.90;99.90
3998;DHT22;61314;53.444;9.902;2022-07-23T14:28:23;22.00;99.90
3998;DHT22;61314;53.444;9.902;2022-07-23T14:30:51;22.10;99.90
3998;DHT22;61314;53.444;9.902;2022-07-23T14:33:18;22.30;99.90
3998;DHT22;61314;53.444;9.902;2022-07-23T14:35:47;22.10;99.90
3998;DHT22;61314;53.444;9.902;2022-07-23T14:38:13;22.10;99.90
3998;DHT22;61314;53.444;9.902;2022-07-23T14:40:41;22.10;99.90
3998;DHT22;61314;53.444;9.902;2022-07-23T14:43:08;22.10;99.90
3998;DHT22;61314;53.444;9.902;2022-07-23T14:45:38;22.20;99.90
3998;DHT22;61314;53.444;9.902;2022-07-23T14:48:05;22.20;99.90
3998;DHT22;61314;53.444;9.902;2022-07-23T14:50:32;22.30;99.90
3998;DHT22;61314;53.444;9.902;2022-07-23T14:52:59;22.40;99.90
3998;DHT22;61314;53.444;9.902;2022-07-23T14:55:26;22.40;99.90
3998;DHT22;61314;53.444;9.902;2022-07-23T14:57:52;22.40;99.90
3998;DHT22;61314;53.444;9.902;2022-07-23T15:00:19;22.30;99.90
3998;DHT22;61314;53.444;9.902;2022-07-23T15:02:49;22.30;99.90
3998;DHT22;61314;53.444;9.902;2022-07-23T15:05:20;22.20;99.90
3998;DHT22;61314;53.444;9.902;2022-07-23T15:07:47;22.10;99.90
3998;DHT22;61314;53.444;9.902;2022-07-23T15:10:15;22.10;99.90
3998;DHT22;61314;53.444;9.902;2022-07-23T15:12:46;22.00;99.90
3998;DHT22;61314;53.444;9.902;2022-07-23T15:15:13;22.00;99.90
3998;DHT22;61314;53.444;9.902;2022-07-23T15:17:41;22.00;99.90
3998;DHT22;61314;53.444;9.902;2022-07-23T15:20:09;21.80;99.90
3998;DHT22;61314;53.444;9.902;2022-07-23T15:22:36;21.90;99.90
3998;DHT22;61314;53.444;9.902;2022-07-23T15:25:03;21.80;99.90
3998;DHT22;61314;53.444;9.902;2022-07-23T15:27:31;21.80;99.90
3998;DHT22;61314;53.444;9.902;2022-07-23T15:29:58;21.70;99.90
3998;DHT22;61314;53.444;9.902;2022-07-23T15:42:20;21.70;99.90
3998;DHT22;61314;53.444;9.902;2022-07-23T15:44:46;21.30;99.90
3998;DHT22;61314;53.444;9.902;2022-07-23T15:47:17;21.20;99.90
3998;DHT22;61314;53.444;9.902;2022-07-23T15:49:45;21.20;99.90
3998;DHT22;61314;53.444;9.902;2022-07-23T15:52:13;21.20;99.90
3998;DHT22;61314;53.444;9.902;2022-07-23T15:54:40;21.20;99.90
3998;DHT22;61314;53.444;9.902;2022-07-23T15:59:35;21.10;99.90
3998;DHT22;61314;53.444;9.902;2022-07-23T16:02:02;20.90;99.90
3998;DHT22;61314;53.444;9.902;2022-07-23T16:04:30;20.80;99.90
3998;DHT22;61314;53.444;9.902;2022-07-23T16:06:59;20.90;99.90
3998;DHT22;61314;53.444;9.902;2022-07-23T16:09:26;20.90;99.90
3998;DHT22;61314;53.444;9.902;2022-07-23T16:11:53;20.80;99.90
3998;DHT22;61314;53.444;9.902;2022-07-23T16:14:21;20.80;99.90
3998;DHT22;61314;53.444;9.902;2022-07-23T16:16:49;20.70;99.90
3998;DHT22;61314;53.444;9.902;2022-07-23T16:21:43;20.60;99.90
3998;DHT22;61314;53.444;9.902;2022-07-23T16:46:20;20.40;99.90
3998;DHT22;61314;53.444;9.902;2022-07-23T16:48:47;19.90;99.90
3998;DHT22;61314;53.444;9.902;2022-07-23T16:51:14;19.80;99.90
3998;DHT22;61314;53.444;9.902;2022-07-23T16:53:41;19.80;99.90
3998;DHT22;61314;53.444;9.902;2022-07-23T16:56:09;19.70;99.90
3998;DHT22;61314;53.444;9.902;2022-07-23T16:58:36;19.70;99.90
3998;DHT22;61314;53.444;9.902;2022-07-23T17:01:02;19.70;99.90
3998;DHT22;61314;53.444;9.902;2022-07-23T17:03:30;19.70;99.90
3998;DHT22;61314;53.444;9.902;2022-07-23T17:05:58;19.70;99.90
3998;DHT22;61314;53.444;9.902;2022-07-23T17:13:20;19.60;99.90
3998;DHT22;61314;53.444;9.902;2022-07-23T17:15:47;19.50;99.90
3998;DHT22;61314;53.444;9.902;2022-07-23T17:18:14;19.50;99.90
3998;DHT22;61314;53.444;9.902;2022-07-23T17:20:47;19.50;99.90
3998;DHT22;61314;53.444;9.902;2022-07-23T17:23:14;19.50;99.90
3998;DHT22;61314;53.444;9.902;2022-07-23T17:38:12;19.50;99.90
3998;DHT22;61314;53.444;9.902;2022-07-23T17:40:38;19.20;99.90
3998;DHT22;61314;53.444;9.902;2022-07-23T17:43:05;19.10;99.90
3998;DHT22;61314;53.444;9.902;2022-07-23T17:47:59;19.10;99.90
3998;DHT22;61314;53.444;9.902;2022-07-23T17:50:27;19.00;99.90
3998;DHT22;61314;53.444;9.902;2022-07-23T17:57:52;19.00;99.90
3998;DHT22;61314;53.444;9.902;2022-07-23T18:15:06;18.80;99.90
3998;DHT22;61314;53.444;9.902;2022-07-23T18:17:34;18.50;99.90
3998;DHT22;61314;53.444;9.902;2022-07-23T18:20:03;18.30;99.90
3998;DHT22;61314;53.444;9.902;2022-07-23T18:22:29;18.40;99.90
3998;DHT22;61314;53.444;9.902;2022-07-23T18:24:56;18.20;99.90
3998;DHT22;61314;53.444;9.902;2022-07-23T18:27:23;18.20;99.90
3998;DHT22;61314;53.444;9.902;2022-07-23T18:29:50;18.30;99.90
3998;DHT22;61314;53.444;9.902;2022-07-23T18:44:55;17.80;99.90
3998;DHT22;61314;53.444;9.902;2022-07-23T18:47:22;17.70;99.90
3998;DHT22;61314;53.444;9.902;2022-07-23T18:52:18;17.70;99.90
3998;DHT22;61314;53.444;9.902;2022-07-23T19:04:35;17.50;99.90
3998;DHT22;61314;53.444;9.902;2022-07-23T19:07:02;17.30;99.90
3998;DHT22;61314;53.444;9.902;2022-07-23T19:12:00;17.30;99.90
3998;DHT22;61314;53.444;9.902;2022-07-23T19:14:27;17.20;99.90
3998;DHT22;61314;53.444;9.902;2022-07-23T19:21:49;16.90;99.90
3998;DHT22;61314;53.444;9.902;2022-07-23T19:24:16;16.90;99.90
3998;DHT22;61314;53.444;9.902;2022-07-23T19:26:43;16.90;99.90
3998;DHT22;61314;53.444;9.902;2022-07-23T19:31:37;16.80;99.90
3998;DHT22;61314;53.444;9.902;2022-07-23T19:34:04;16.60;99.90
3998;DHT22;61314;53.444;9.902;2022-07-23T19:36:31;16.70;99.90
3998;DHT22;61314;53.444;9.902;2022-07-23T19:38:58;16.80;99.90
3998;DHT22;61314;53.444;9.902;2022-07-23T19:41:25;16.60;99.90
3998;DHT22;61314;53.444;9.902;2022-07-23T19:43:52;16.50;99.90
3998;DHT22;61314;53.444;9.902;2022-07-23T19:46:19;16.40;99.90
3998;DHT22;61314;53.444;9.902;2022-07-23T19:48:48;16.40;99.90
3998;DHT22;61314;53.444;9.902;2022-07-23T19:51:15;16.30;99.90
3998;DHT22;61314;53.444;9.902;2022-07-23T19:53:42;16.30;99.90
3998;DHT22;61314;53.444;9.902;2022-07-23T19:56:09;16.20;99.90
3998;DHT22;61314;53.444;9.902;2022-07-23T19:58:36;16.20;99.90
3998;DHT22;61314;53.444;9.902;2022-07-23T20:01:03;16.10;99.90
3998;DHT22;61314;53.444;9.902;2022-07-23T20:03:30;16.00;99.90
3998;DHT22;61314;53.444;9.902;2022-07-23T20:05:57;15.90;99.90
3998;DHT22;61314;53.444;9.902;2022-07-23T20:08:29;15.90;99.90
3998;DHT22;61314;53.444;9.902;2022-07-23T20:10:56;15.80;99.90
3998;DHT22;61314;53.444;9.902;2022-07-23T20:13:23;15.80;99.90